Time;durP1;ratioP1;P1;durP2;ratioP2;P2;SDS_P1;SDS_P2;PMS_P1;PMS_P2;Temp;Humidity;BMP_temperature;BMP_pressure;BME280_temperature;BME280_humidity;BME280_pressure;Samples;Min_cycle;Max_cycle;Signal;HPM_P1;HPM_P2
2022/08/28 00:06:36;;;;;;;26.95;20.63;;;;;;;19.92;77.24;99742.22;30858188;28;96731;-59
2022/08/28 00:21:37;;;;;;;23.83;18.45;;;;;;;19.84;77.74;99753.44;30855858;28;96891;-59
2022/08/28 00:36:38;;;;;;;26.77;17.77;;;;;;;19.67;78.28;99743.38;30855123;28;96665;-59
2022/08/28 01:07:01;;;;;;;23.97;18.17;;;;;;;19.54;79.32;99743.63;30876082;28;97065;-59
2022/08/28 01:22:14;;;;;;;20.13;16.80;;;;;;;19.43;79.75;99743.44;30872996;28;96666;-58
2022/08/28 01:37:14;;;;;;;22.80;16.17;;;;;;;19.54;80.17;99732.84;30871704;28;97319;-58
2022/08/28 01:52:15;;;;;;;23.70;16.40;;;;;;;19.58;80.28;99729.41;30862725;28;96649;-58
2022/08/28 02:07:15;;;;;;;24.17;17.50;;;;;;;19.59;80.52;99725.66;30861194;28;96620;-58
2022/08/28 02:22:16;;;;;;;25.67;18.55;;;;;;;19.57;80.35;99735.06;30859593;28;97196;-58
2022/08/28 02:37:17;;;;;;;23.90;17.90;;;;;;;19.49;80.86;99725.47;30858007;28;97330;-59
2022/08/28 02:52:22;;;;;;;25.87;17.37;;;;;;;19.42;81.15;99720.19;30822247;28;1202627;-58
2022/08/28 03:07:22;;;;;;;25.97;17.30;;;;;;;19.40;81.22;99737.69;30860886;28;97781;-59
2022/08/28 03:23:25;;;;;;;25.40;17.05;;;;;;;19.42;81.63;99746.38;30861132;28;98218;-58
2022/08/28 03:37:43;;;;;;;25.13;17.23;;;;;;;19.46;81.35;99736.72;30858232;28;96781;-59
2022/08/28 03:52:43;;;;;;;24.02;16.60;;;;;;;19.30;80.88;99737.47;30857317;28;108387;-58
2022/08/28 04:07:44;;;;;;;23.15;15.85;;;;;;;19.26;81.58;99759.56;30856094;28;96684;-59
2022/08/28 04:22:45;;;;;;;23.30;15.30;;;;;;;19.33;81.36;99758.59;30855870;28;96728;-58
2022/08/28 04:37:45;;;;;;;25.08;15.57;;;;;;;19.39;81.41;99780.06;30854079;28;96792;-58
2022/08/28 04:52:45;;;;;;;18.23;13.32;;;;;;;19.42;81.52;99779.63;30851915;28;97143;-58
2022/08/28 05:07:46;;;;;;;19.83;12.25;;;;;;;19.64;81.63;99778.13;30852423;28;106889;-58
2022/08/28 05:22:46;;;;;;;15.55;12.35;;;;;;;19.88;81.28;99787.00;30850015;28;106107;-58
2022/08/28 05:37:46;;;;;;;16.23;12.80;;;;;;;20.08;81.06;99803.59;30859933;28;97644;-58
2022/08/28 05:52:47;;;;;;;15.80;12.23;;;;;;;20.32;80.55;99803.47;30868468;28;97970;-59
2022/08/28 06:07:47;;;;;;;17.40;12.90;;;;;;;20.61;80.15;99812.38;30866905;28;96776;-58
2022/08/28 06:22:49;;;;;;;17.60;12.67;;;;;;;20.94;79.58;99818.84;30863747;28;114480;-58
2022/08/28 06:37:49;;;;;;;16.93;12.13;;;;;;;21.40;78.32;99812.44;30864032;28;96682;-58
2022/08/28 06:52:50;;;;;;;15.07;11.33;;;;;;;22.07;77.44;99815.94;30859139;28;118921;-59
2022/08/28 07:07:50;;;;;;;15.30;10.47;;;;;;;22.56;76.25;99823.22;30860468;28;96771;-59
2022/08/28 07:22:52;;;;;;;14.70;10.55;;;;;;;22.97;73.91;99834.38;30860192;28;96715;-59
2022/08/28 07:37:52;;;;;;;19.20;14.23;;;;;;;22.92;73.50;99832.44;30858381;28;96687;-59
2022/08/28 07:52:52;;;;;;;;;;;;;;;23.86;71.75;99845.44;30856623;28;96955;-59
2022/08/28 08:07:53;;;;;;;11.27;8.90;;;;;;;25.16;69.21;99847.19;30856575;28;96737;-59
2022/08/28 08:22:53;;;;;;;9.05;7.45;;;;;;;25.97;66.33;99861.66;30854982;28;97701;-59
2022/08/28 08:37:53;;;;;;;6.47;4.57;;;;;;;25.97;64.24;99858.09;30851276;28;96861;-59
2022/08/28 08:53:17;;;;;;;5.28;3.90;;;;;;;26.60;61.79;99881.22;30852300;28;99017;-59
2022/08/28 09:08:50;;;;;;;5.70;3.23;;;;;;;26.93;59.28;99885.09;30855328;28;97336;-59
2022/08/28 09:23:54;;;;;;;3.67;2.30;;;;;;;28.70;53.76;99885.41;30856461;28;96739;-59
2022/08/28 09:39:18;;;;;;;2.53;1.70;;;;;;;28.79;52.26;99880.88;30868480;28;96717;-59
2022/08/28 09:54:25;;;;;;;2.67;1.80;;;;;;;29.53;50.28;99884.78;30868006;28;96861;-59
2022/08/28 10:09:50;;;;;;;2.47;1.80;;;;;;;30.03;47.74;99898.59;30866608;28;96718;-59
2022/08/28 10:25:09;;;;;;;5.00;2.50;;;;;;;28.53;49.14;99892.22;30865214;28;97304;-59
2022/08/28 10:40:15;;;;;;;3.57;2.03;;;;;;;27.57;50.75;99895.13;30862535;28;97531;-59
2022/08/28 10:55:22;;;;;;;3.87;2.23;;;;;;;26.76;52.73;99904.63;30861894;28;96701;-59
2022/08/28 11:10:49;;;;;;;3.67;2.43;;;;;;;26.16;53.05;99911.00;30861032;28;96636;-60
2022/08/28 11:26:00;;;;;;;6.03;1.60;;;;;;;24.91;56.64;99908.00;30859845;28;96766;-59
2022/08/28 11:41:14;;;;;;;5.50;2.63;;;;;;;24.63;58.27;99919.16;30856192;28;96715;-60
2022/08/28 11:56:33;;;;;;;9.80;5.83;;;;;;;25.20;58.32;99930.06;30856153;28;96734;-60
2022/08/28 12:11:39;;;;;;;9.07;4.80;;;;;;;26.06;56.55;99921.16;30854906;28;97516;-59
2022/08/28 12:26:46;;;;;;;5.83;4.00;;;;;;;25.68;58.32;99933.28;30854581;28;96785;-60
2022/08/28 12:41:46;;;;;;;5.77;5.03;;;;;;;24.60;59.75;99941.44;30855828;28;97320;-59
2022/08/28 12:56:47;;;;;;;8.35;6.05;;;;;;;24.49;60.20;99929.75;30874385;28;96897;-59
2022/08/28 13:11:50;;;;;;;7.10;5.63;;;;;;;24.07;61.64;99955.19;30872486;28;97093;-60
2022/08/28 13:27:01;;;;;;;3.07;2.37;;;;;;;23.43;62.06;99964.34;30871004;28;96907;-60
2022/08/28 13:42:08;;;;;;;0.97;0.70;;;;;;;22.85;64.13;99988.53;30868384;28;97086;-60
2022/08/28 13:57:08;;;;;;;3.43;0.90;;;;;;;21.80;66.17;99992.94;30866694;28;96785;-60
2022/08/28 14:12:09;;;;;;;2.50;1.20;;;;;;;21.07;69.07;99995.59;30865816;28;96713;-60
2022/08/28 14:27:09;;;;;;;4.50;2.08;;;;;;;20.96;70.55;99998.13;30865341;28;97403;-60
2022/08/28 14:42:10;;;;;;;2.77;2.13;;;;;;;20.78;71.18;100004.56;30863586;28;96797;-60
2022/08/28 14:57:10;;;;;;;4.47;2.03;;;;;;;20.52;72.03;100016.75;30861493;28;96826;-60
2022/08/28 15:12:11;;;;;;;2.70;1.70;;;;;;;20.42;72.80;100011.97;30858707;28;97362;-60
2022/08/28 15:27:11;;;;;;;4.63;2.60;;;;;;;20.31;73.50;100003.88;30858759;28;98439;-59
2022/08/28 15:42:12;;;;;;;6.95;4.03;;;;;;;20.07;74.02;100007.47;30857667;28;96716;-59
2022/08/28 15:57:13;;;;;;;7.20;4.17;;;;;;;19.67;74.95;100008.16;30855423;28;97284;-59
2022/08/28 16:12:14;;;;;;;6.88;4.35;;;;;;;19.41;75.72;100031.88;30854792;28;96669;-59
2022/08/28 16:27:14;;;;;;;6.80;4.63;;;;;;;19.39;76.29;100041.25;30854248;28;97292;-59
2022/08/28 16:42:15;;;;;;;7.03;4.85;;;;;;;19.24;76.87;100044.41;30851044;28;109793;-59
2022/08/28 16:57:18;;;;;;;8.80;6.00;;;;;;;19.24;77.50;100041.69;30852048;28;96756;-59
2022/08/28 17:12:18;;;;;;;8.90;5.10;;;;;;;19.22;77.85;100055.44;30851384;28;96763;-59
2022/08/28 17:27:19;;;;;;;9.30;4.80;;;;;;;19.24;78.21;100079.50;30851434;28;96763;-60
2022/08/28 17:42:19;;;;;;;9.32;6.38;;;;;;;19.22;78.55;100081.63;30867971;28;96732;-60
2022/08/28 17:57:20;;;;;;;12.95;9.43;;;;;;;19.10;78.69;100086.97;30868206;28;97188;-59
2022/08/28 18:12:20;;;;;;;18.52;10.05;;;;;;;19.00;78.59;100102.88;30867025;28;96749;-60
2022/08/28 18:27:21;;;;;;;14.48;10.30;;;;;;;18.88;79.05;100114.47;30865575;28;96742;-60
2022/08/28 18:42:21;;;;;;;18.10;9.65;;;;;;;18.82;79.19;100134.25;30862199;28;96825;-59
2022/08/28 18:57:22;;;;;;;14.68;9.05;;;;;;;18.85;79.48;100144.56;30861758;28;97437;-59
2022/08/28 19:12:24;;;;;;;19.13;9.73;;;;;;;18.86;79.64;100151.63;30860278;28;96707;-59
2022/08/28 19:27:24;;;;;;;16.93;9.33;;;;;;;18.88;79.37;100164.94;30858502;28;96691;-59
2022/08/28 19:42:26;;;;;;;13.93;8.65;;;;;;;18.88;79.50;100171.13;30857376;28;96860;-59
2022/08/28 19:57:26;;;;;;;19.57;9.37;;;;;;;18.84;79.67;100180.69;30855242;28;97366;-66
2022/08/28 20:12:26;;;;;;;14.65;7.88;;;;;;;18.89;79.36;100178.19;30937437;28;97851;-60
2022/08/28 20:27:27;;;;;;;14.68;7.57;;;;;;;18.96;79.34;100191.59;30970380;28;96801;-60
2022/08/28 20:42:27;;;;;;;11.30;6.40;;;;;;;18.92;79.08;100201.22;30973721;28;97182;-59
2022/08/28 20:57:28;;;;;;;9.07;5.95;;;;;;;18.85;78.80;100217.44;30958578;28;96860;-60
2022/08/28 21:12:29;;;;;;;9.52;4.97;;;;;;;18.77;78.24;100220.44;30908537;28;96819;-60
2022/08/28 21:27:29;;;;;;;8.83;5.00;;;;;;;18.59;77.49;100232.03;30879520;28;96761;-59
2022/08/28 21:42:30;;;;;;;9.82;5.18;;;;;;;18.46;77.37;100238.38;30870231;28;96755;-59
2022/08/28 21:57:31;;;;;;;9.05;4.80;;;;;;;18.26;77.11;100252.00;30869422;28;97590;-59
2022/08/28 22:12:31;;;;;;;9.88;4.78;;;;;;;17.95;77.06;100255.53;30867656;28;96730;-59
2022/08/28 22:27:33;;;;;;;11.23;5.03;;;;;;;17.60;77.26;100259.44;30867671;28;96683;-60
2022/08/28 22:42:33;;;;;;;9.60;5.20;;;;;;;17.37;77.68;100273.44;30864789;28;99547;-59
2022/08/28 22:57:34;;;;;;;9.90;5.28;;;;;;;17.06;77.62;100280.38;30863881;28;96807;-60
2022/08/28 23:12:35;;;;;;;15.70;5.90;;;;;;;16.64;77.99;100282.47;30863152;28;96847;-60
2022/08/28 23:27:35;;;;;;;11.13;5.90;;;;;;;16.32;78.49;100284.94;30860464;28;96775;-60
2022/08/28 23:42:36;;;;;;;12.52;6.03;;;;;;;16.05;78.94;100293.00;30859475;28;96834;-59
2022/08/28 23:57:36;;;;;;;13.32;6.70;;;;;;;15.79;79.42;100288.31;30858888;28;97102;-60
